createdAt,value
2018-12-31T00:00:08.970Z,3.78
2018-12-31T00:01:08.951Z,3.73
2018-12-31T00:02:08.936Z,3.73
2018-12-31T00:03:08.924Z,3.70
2018-12-31T00:04:08.920Z,3.75
2018-12-31T00:05:08.908Z,3.75
2018-12-31T00:06:08.891Z,3.72
2018-12-31T00:07:08.880Z,3.73
2018-12-31T00:08:08.872Z,3.76
2018-12-31T00:09:08.861Z,3.73
2018-12-31T00:10:08.869Z,3.66
2018-12-31T00:11:08.847Z,3.75
2018-12-31T00:12:08.834Z,3.69
2018-12-31T00:13:08.838Z,3.61
2018-12-31T00:14:08.806Z,3.68
2018-12-31T00:15:08.793Z,3.60
2018-12-31T00:16:08.783Z,3.65
2018-12-31T00:17:08.782Z,3.57
2018-12-31T00:18:08.762Z,3.61
2018-12-31T00:19:08.750Z,3.69
2018-12-31T00:20:08.742Z,3.61
2018-12-31T00:21:08.730Z,3.60
2018-12-31T00:22:08.719Z,3.60
2018-12-31T00:23:08.720Z,3.54
2018-12-31T00:24:08.702Z,3.61
2018-12-31T00:25:08.692Z,3.52
2018-12-31T00:26:08.696Z,3.57
2018-12-31T00:27:08.670Z,3.58
2018-12-31T00:28:08.678Z,3.48
2018-12-31T00:29:08.650Z,3.45
2018-12-31T00:30:08.640Z,3.50
2018-12-31T00:31:08.626Z,3.52
2018-12-31T00:32:08.620Z,3.35
2018-12-31T00:33:08.611Z,3.48
2018-12-31T00:34:08.601Z,3.42
2018-12-31T00:35:08.601Z,3.40
2018-12-31T00:36:08.596Z,3.40
2018-12-31T00:37:08.567Z,3.35
2018-12-31T00:38:08.552Z,3.45
2018-12-31T00:39:08.542Z,3.51
2018-12-31T00:40:08.529Z,3.39
2018-12-31T00:41:08.518Z,3.50
2018-12-31T00:42:08.510Z,3.50
2018-12-31T00:43:08.500Z,3.42
2018-12-31T00:44:08.491Z,3.48
2018-12-31T00:45:08.481Z,3.50
2018-12-31T00:46:08.469Z,3.50
2018-12-31T00:47:08.461Z,3.48
2018-12-31T00:48:08.449Z,3.52
2018-12-31T00:49:08.447Z,3.47
2018-12-31T00:50:08.429Z,3.52
2018-12-31T00:51:08.418Z,3.45
2018-12-31T00:52:08.405Z,3.50
2018-12-31T00:53:08.399Z,3.54
2018-12-31T00:54:08.383Z,3.54
2018-12-31T00:55:08.369Z,3.54
2018-12-31T00:56:08.365Z,3.50
2018-12-31T00:57:08.352Z,3.52
2018-12-31T00:58:08.349Z,3.52
2018-12-31T00:59:08.347Z,3.50
2018-12-31T01:00:08.323Z,3.52
2018-12-31T01:01:08.309Z,3.55
2018-12-31T01:02:08.317Z,3.52
2018-12-31T01:03:08.292Z,3.55
2018-12-31T01:04:08.287Z,3.54
2018-12-31T01:05:08.274Z,3.52
2018-12-31T01:06:08.261Z,3.55
2018-12-31T01:07:08.255Z,3.58
2018-12-31T01:08:08.243Z,3.60
2018-12-31T01:09:08.227Z,3.62
2018-12-31T01:10:08.217Z,3.54
2018-12-31T01:11:08.214Z,3.62
2018-12-31T01:12:08.197Z,3.57
2018-12-31T01:13:08.187Z,3.60
2018-12-31T01:14:08.179Z,3.55
2018-12-31T01:15:08.167Z,3.61
2018-12-31T01:16:08.154Z,3.61
2018-12-31T01:17:08.143Z,3.58
2018-12-31T01:18:08.137Z,3.55
2018-12-31T01:19:08.121Z,3.52
2018-12-31T01:20:08.116Z,3.57
2018-12-31T01:21:08.099Z,3.58
2018-12-31T01:22:08.115Z,3.58
2018-12-31T01:23:08.084Z,3.61
2018-12-31T01:24:08.071Z,3.58
2018-12-31T01:25:08.059Z,3.57
2018-12-31T01:26:08.045Z,3.55
2018-12-31T01:27:08.041Z,3.57
2018-12-31T01:28:08.031Z,3.55
2018-12-31T01:29:08.015Z,3.55
2018-12-31T01:30:08.003Z,3.58
2018-12-31T01:31:07.997Z,3.54
2018-12-31T01:32:08.231Z,3.55
2018-12-31T01:33:07.978Z,3.54
2018-12-31T01:34:07.967Z,3.51
2018-12-31T01:35:07.960Z,3.51
2018-12-31T01:36:07.940Z,3.54
2018-12-31T01:37:07.937Z,3.51
2018-12-31T01:38:07.919Z,3.48
2018-12-31T01:39:07.923Z,3.35
2018-12-31T01:40:07.909Z,3.42
2018-12-31T01:41:07.889Z,3.51
2018-12-31T01:42:07.883Z,3.36
2018-12-31T01:43:07.881Z,3.36
2018-12-31T01:44:07.859Z,3.43
2018-12-31T01:45:07.879Z,3.40
2018-12-31T01:46:07.844Z,3.48
2018-12-31T01:47:07.828Z,3.51
2018-12-31T01:48:07.813Z,3.48
2018-12-31T01:49:07.824Z,3.52
2018-12-31T01:50:07.797Z,3.51
2018-12-31T01:51:11.392Z,3.58
2018-12-31T01:52:07.771Z,3.55
2018-12-31T01:53:07.762Z,3.52
2018-12-31T01:54:07.754Z,3.54
2018-12-31T01:55:07.741Z,3.54
2018-12-31T01:56:07.741Z,3.57
2018-12-31T01:57:07.728Z,3.61
2018-12-31T01:58:07.722Z,3.60
2018-12-31T01:59:07.697Z,3.65
2018-12-31T02:00:07.694Z,3.58
2018-12-31T02:01:07.680Z,3.57
2018-12-31T02:02:07.664Z,3.65
2018-12-31T02:03:07.666Z,3.61
2018-12-31T02:04:07.647Z,3.61
2018-12-31T02:05:07.640Z,3.60
2018-12-31T02:06:07.630Z,3.66
2018-12-31T02:07:07.612Z,3.66
2018-12-31T02:08:07.632Z,3.73
2018-12-31T02:09:07.594Z,3.66
2018-12-31T02:10:07.593Z,3.69
2018-12-31T02:11:07.574Z,3.58
2018-12-31T02:12:07.568Z,3.60
2018-12-31T02:13:07.554Z,3.68
2018-12-31T02:14:07.540Z,3.70
2018-12-31T02:15:07.534Z,3.70
2018-12-31T02:16:07.517Z,3.70
2018-12-31T02:17:07.510Z,3.88
2018-12-31T02:18:07.498Z,3.72
2018-12-31T02:19:07.490Z,3.79
2018-12-31T02:20:07.476Z,3.72
2018-12-31T02:21:07.484Z,3.80
2018-12-31T02:22:07.458Z,3.84
2018-12-31T02:23:07.452Z,3.79
2018-12-31T02:24:07.440Z,3.87
2018-12-31T02:25:07.427Z,3.87
2018-12-31T02:26:07.418Z,3.94
2018-12-31T02:27:07.408Z,3.88
2018-12-31T02:28:07.396Z,3.91
2018-12-31T02:29:07.386Z,3.86
2018-12-31T02:30:07.374Z,3.96
2018-12-31T02:31:07.363Z,3.98
2018-12-31T02:32:07.356Z,3.97
2018-12-31T02:33:07.350Z,3.98
2018-12-31T02:34:07.334Z,4.04
2018-12-31T02:35:07.322Z,3.98
2018-12-31T02:36:07.317Z,3.97
2018-12-31T02:37:07.310Z,3.97
2018-12-31T02:38:07.300Z,3.97
2018-12-31T02:39:07.278Z,3.97
2018-12-31T02:40:07.273Z,4.05
2018-12-31T02:41:07.260Z,4.00
2018-12-31T02:42:07.250Z,4.00
2018-12-31T02:43:07.257Z,4.02
2018-12-31T02:44:07.250Z,3.96
2018-12-31T02:45:07.218Z,4.02
2018-12-31T02:46:07.207Z,4.05
2018-12-31T02:47:07.202Z,4.05
2018-12-31T02:48:07.184Z,4.15
2018-12-31T02:49:07.182Z,4.06
2018-12-31T02:50:07.164Z,4.12
2018-12-31T02:51:07.166Z,3.98
2018-12-31T02:52:07.174Z,4.11
2018-12-31T02:53:07.133Z,4.08
2018-12-31T02:54:07.124Z,4.12
2018-12-31T02:55:07.118Z,4.06
2018-12-31T02:56:07.100Z,4.12
2018-12-31T02:57:07.110Z,4.11
2018-12-31T02:58:07.081Z,4.08
2018-12-31T02:59:07.100Z,4.09
2018-12-31T03:00:07.058Z,4.15
2018-12-31T03:01:07.048Z,4.11
2018-12-31T03:02:07.034Z,4.08
2018-12-31T03:03:07.024Z,4.14
2018-12-31T03:04:07.017Z,4.02
2018-12-31T03:05:07.008Z,4.11
2018-12-31T03:06:06.997Z,4.12
2018-12-31T03:07:07.012Z,4.15
2018-12-31T03:08:06.982Z,4.12
2018-12-31T03:09:06.966Z,4.08
2018-12-31T03:10:06.956Z,4.09
2018-12-31T03:11:06.955Z,4.11
2018-12-31T03:12:06.933Z,4.09
2018-12-31T03:13:06.922Z,4.00
2018-12-31T03:14:06.911Z,4.11
2018-12-31T03:15:06.905Z,4.11
2018-12-31T03:16:06.892Z,4.08
2018-12-31T03:17:06.883Z,4.15
2018-12-31T03:18:06.869Z,4.11
2018-12-31T03:19:06.859Z,4.08
2018-12-31T03:20:06.856Z,4.06
2018-12-31T03:21:06.848Z,4.09
2018-12-31T03:22:06.829Z,4.11
2018-12-31T03:23:06.823Z,4.06
2018-12-31T03:24:06.801Z,4.08
2018-12-31T03:25:06.796Z,4.08
2018-12-31T03:26:06.787Z,4.09
2018-12-31T03:27:06.777Z,4.15
2018-12-31T03:28:06.762Z,4.05
2018-12-31T03:29:06.751Z,4.12
2018-12-31T03:30:06.742Z,4.08
2018-12-31T03:31:06.731Z,4.11
2018-12-31T03:32:06.717Z,4.04
2018-12-31T03:33:06.725Z,4.12
2018-12-31T03:34:06.695Z,4.05
2018-12-31T03:35:06.690Z,4.08
2018-12-31T03:36:06.669Z,4.12
2018-12-31T03:37:06.660Z,4.14
2018-12-31T03:38:06.655Z,4.08
2018-12-31T03:39:06.655Z,4.08
2018-12-31T03:40:06.629Z,4.11
2018-12-31T03:41:06.625Z,4.16
2018-12-31T03:42:06.609Z,4.15
2018-12-31T03:43:06.603Z,4.14
2018-12-31T03:44:06.620Z,4.15
2018-12-31T03:45:06.579Z,4.16
2018-12-31T03:46:06.572Z,4.05
2018-12-31T03:47:06.559Z,4.18
2018-12-31T03:48:06.544Z,4.11
2018-12-31T03:49:06.538Z,4.12
2018-12-31T03:50:06.529Z,4.12
2018-12-31T03:51:06.523Z,4.15
2018-12-31T03:52:06.509Z,4.14
2018-12-31T03:53:06.491Z,4.15
2018-12-31T03:54:06.483Z,4.16
2018-12-31T03:55:06.476Z,4.18
2018-12-31T03:56:06.467Z,4.20
2018-12-31T03:57:06.447Z,4.16
2018-12-31T03:58:06.437Z,4.23
2018-12-31T03:59:06.433Z,4.20
2018-12-31T04:00:06.417Z,4.20
2018-12-31T04:01:06.407Z,4.20
2018-12-31T04:02:06.403Z,4.20
2018-12-31T04:03:06.406Z,4.24
2018-12-31T04:04:06.384Z,4.24
2018-12-31T04:05:06.379Z,4.26
2018-12-31T04:06:06.369Z,4.20
2018-12-31T04:07:06.348Z,4.12
2018-12-31T04:08:06.333Z,4.14
2018-12-31T04:09:06.324Z,4.15
2018-12-31T04:10:06.314Z,4.15
2018-12-31T04:11:06.301Z,4.12
2018-12-31T04:12:06.300Z,4.12
2018-12-31T04:13:06.283Z,4.16
2018-12-31T04:14:06.289Z,4.16
2018-12-31T04:15:06.253Z,4.14
2018-12-31T04:16:06.253Z,4.08
2018-12-31T04:17:06.238Z,4.15
2018-12-31T04:18:06.230Z,4.18
2018-12-31T04:19:06.232Z,4.20
2018-12-31T04:20:06.223Z,4.18
2018-12-31T04:21:06.198Z,4.18
2018-12-31T04:22:06.186Z,4.18
2018-12-31T04:23:06.175Z,4.20
2018-12-31T04:24:06.166Z,4.18
2018-12-31T04:25:06.156Z,4.15
2018-12-31T04:26:06.139Z,4.15
2018-12-31T04:27:06.131Z,4.18
2018-12-31T04:28:06.121Z,4.20
2018-12-31T04:29:06.135Z,4.12
2018-12-31T04:30:06.103Z,4.18
2018-12-31T04:31:06.093Z,4.15
2018-12-31T04:32:06.081Z,4.15
2018-12-31T04:33:06.070Z,4.18
2018-12-31T04:34:06.059Z,4.16
2018-12-31T04:35:06.049Z,4.16
2018-12-31T04:36:06.035Z,4.18
2018-12-31T04:37:06.037Z,4.18
2018-12-31T04:38:06.017Z,4.22
2018-12-31T04:39:06.014Z,4.22
2018-12-31T04:40:05.997Z,4.15
2018-12-31T04:41:05.983Z,4.18
2018-12-31T04:42:05.988Z,4.23
2018-12-31T04:43:05.963Z,4.22
2018-12-31T04:44:05.955Z,4.15
2018-12-31T04:45:05.950Z,4.16
2018-12-31T04:46:05.943Z,4.23
2018-12-31T04:47:05.923Z,4.22
2018-12-31T04:48:05.911Z,4.24
2018-12-31T04:49:05.897Z,4.26
2018-12-31T04:50:05.892Z,4.22
2018-12-31T04:51:05.880Z,4.24
2018-12-31T04:52:05.885Z,4.18
2018-12-31T04:53:05.860Z,4.20
2018-12-31T04:54:05.851Z,4.20
2018-12-31T04:55:05.838Z,4.34
2018-12-31T04:56:05.829Z,4.29
2018-12-31T04:57:05.821Z,4.32
2018-12-31T04:58:05.804Z,4.26
2018-12-31T04:59:05.802Z,4.23
2018-12-31T05:00:05.784Z,4.26
2018-12-31T05:01:05.771Z,4.24
2018-12-31T05:02:05.761Z,4.30
2018-12-31T05:03:05.752Z,4.20
2018-12-31T05:04:05.743Z,4.34
2018-12-31T05:05:05.739Z,4.24
2018-12-31T05:06:05.718Z,4.32
2018-12-31T05:07:05.709Z,4.36
2018-12-31T05:08:05.702Z,4.37
2018-12-31T05:09:05.694Z,4.32
2018-12-31T05:10:05.686Z,4.29
2018-12-31T05:11:05.666Z,4.32
2018-12-31T05:12:05.655Z,4.32
2018-12-31T05:13:05.655Z,4.41
2018-12-31T05:14:05.636Z,4.45
2018-12-31T05:15:05.668Z,4.44
2018-12-31T05:16:05.611Z,4.30
2018-12-31T05:17:05.611Z,4.42
2018-12-31T05:18:05.595Z,4.36
2018-12-31T05:19:05.586Z,4.32
2018-12-31T05:20:05.568Z,4.29
2018-12-31T05:21:05.562Z,4.44
2018-12-31T05:22:05.627Z,4.33
2018-12-31T05:23:05.735Z,4.34
2018-12-31T05:24:05.529Z,4.32
2018-12-31T05:25:05.526Z,4.34
2018-12-31T05:26:05.506Z,4.36
2018-12-31T05:27:05.499Z,4.44
2018-12-31T05:28:05.504Z,4.33
2018-12-31T05:29:05.481Z,4.44
2018-12-31T05:30:05.468Z,4.27
2018-12-31T05:31:05.460Z,4.33
2018-12-31T05:32:05.440Z,4.33
2018-12-31T05:33:05.435Z,4.37
2018-12-31T05:34:05.418Z,4.32
2018-12-31T05:35:05.405Z,4.36
2018-12-31T05:36:05.399Z,4.30
2018-12-31T05:37:05.399Z,4.33
2018-12-31T05:38:05.388Z,4.40
2018-12-31T05:39:05.373Z,4.34
2018-12-31T05:40:05.356Z,4.37
2018-12-31T05:41:05.348Z,4.40
2018-12-31T05:42:05.348Z,4.36
2018-12-31T05:43:05.324Z,4.41
2018-12-31T05:44:05.326Z,4.32
2018-12-31T05:45:05.303Z,4.40
2018-12-31T05:46:05.291Z,4.36
2018-12-31T05:47:05.282Z,4.34
2018-12-31T05:48:05.276Z,4.45
2018-12-31T05:49:05.262Z,4.29
2018-12-31T05:50:05.252Z,4.42
2018-12-31T05:51:05.243Z,4.50
2018-12-31T05:52:05.228Z,4.37
2018-12-31T05:53:05.218Z,4.37
2018-12-31T05:54:05.206Z,4.37
2018-12-31T05:55:05.193Z,4.40
2018-12-31T05:56:05.188Z,4.51
2018-12-31T05:57:05.175Z,4.41
2018-12-31T05:58:05.163Z,4.48
2018-12-31T05:59:05.178Z,4.51
2018-12-31T06:00:05.143Z,4.47
2018-12-31T06:01:05.132Z,4.52
2018-12-31T06:02:05.130Z,4.54
2018-12-31T06:03:05.115Z,4.52
2018-12-31T06:04:05.120Z,4.52
2018-12-31T06:05:05.089Z,4.52
2018-12-31T06:06:05.082Z,4.52
2018-12-31T06:07:05.065Z,4.55
2018-12-31T06:08:05.054Z,4.47
2018-12-31T06:09:05.051Z,4.54
2018-12-31T06:10:05.038Z,4.51
2018-12-31T06:11:05.032Z,4.54
2018-12-31T06:12:05.021Z,4.55
2018-12-31T06:13:05.004Z,4.52
2018-12-31T06:14:05.014Z,4.52
2018-12-31T06:15:04.978Z,4.54
2018-12-31T06:16:04.974Z,4.63
2018-12-31T06:17:05.220Z,4.59
2018-12-31T06:18:04.964Z,4.52
2018-12-31T06:19:04.940Z,4.54
2018-12-31T06:20:04.930Z,4.54
2018-12-31T06:21:04.919Z,4.54
2018-12-31T06:22:04.928Z,4.60
2018-12-31T06:23:04.904Z,4.60
2018-12-31T06:24:04.882Z,4.58
2018-12-31T06:25:04.884Z,4.58
2018-12-31T06:26:04.864Z,4.59
2018-12-31T06:27:04.862Z,4.63
2018-12-31T06:28:04.846Z,4.60
2018-12-31T06:29:04.880Z,4.63
2018-12-31T06:30:04.816Z,4.63
2018-12-31T06:31:04.811Z,4.60
2018-12-31T06:32:04.798Z,4.65
2018-12-31T06:33:04.787Z,4.59
2018-12-31T06:34:04.778Z,4.62
2018-12-31T06:35:04.780Z,4.63
2018-12-31T06:36:04.756Z,4.65
2018-12-31T06:37:04.743Z,4.62
2018-12-31T06:38:04.734Z,4.62
2018-12-31T06:39:04.728Z,4.66
2018-12-31T06:40:04.721Z,4.66
2018-12-31T06:41:04.711Z,4.62
2018-12-31T06:42:04.689Z,4.62
2018-12-31T06:43:04.678Z,4.67
2018-12-31T06:44:04.668Z,4.67
2018-12-31T06:45:04.670Z,4.72
2018-12-31T06:46:04.648Z,4.65
2018-12-31T06:47:04.646Z,4.63
2018-12-31T06:48:04.621Z,4.72
2018-12-31T06:49:04.614Z,4.69
2018-12-31T06:50:04.624Z,4.72
2018-12-31T06:51:04.591Z,4.69
2018-12-31T06:52:04.580Z,4.72
2018-12-31T06:53:04.575Z,4.72
2018-12-31T06:54:04.558Z,4.70
2018-12-31T06:55:04.545Z,4.75
2018-12-31T06:56:04.538Z,4.80
2018-12-31T06:57:04.527Z,4.73
2018-12-31T06:58:04.526Z,4.80
2018-12-31T06:59:04.515Z,4.73
2018-12-31T07:00:04.497Z,4.78
2018-12-31T07:01:04.478Z,4.80
2018-12-31T07:02:04.475Z,4.80
2018-12-31T07:03:04.476Z,4.84
2018-12-31T07:04:04.851Z,4.86
2018-12-31T07:05:04.440Z,4.78
2018-12-31T07:06:04.425Z,4.80
2018-12-31T07:07:04.415Z,4.86
2018-12-31T07:08:04.410Z,4.88
2018-12-31T07:09:04.402Z,4.86
2018-12-31T07:10:04.402Z,4.91
2018-12-31T07:11:04.379Z,4.94
2018-12-31T07:12:04.357Z,4.94
2018-12-31T07:13:04.373Z,4.91
2018-12-31T07:14:04.341Z,4.92
2018-12-31T07:15:04.328Z,4.97
2018-12-31T07:16:04.322Z,5.00
2018-12-31T07:17:04.308Z,4.89
2018-12-31T07:18:04.300Z,5.02
2018-12-31T07:19:04.286Z,4.92
2018-12-31T07:20:04.294Z,4.91
2018-12-31T07:21:04.272Z,4.94
2018-12-31T07:22:04.262Z,4.97
2018-12-31T07:23:04.247Z,4.91
2018-12-31T07:24:04.233Z,4.96
2018-12-31T07:25:04.228Z,5.04
2018-12-31T07:26:04.221Z,5.02
2018-12-31T07:27:04.211Z,5.12
2018-12-31T07:28:04.200Z,4.96
2018-12-31T07:29:04.179Z,5.10
2018-12-31T07:30:04.172Z,5.00
2018-12-31T07:31:04.157Z,5.00
2018-12-31T07:32:04.155Z,5.07
2018-12-31T07:33:04.150Z,4.94
2018-12-31T07:34:04.147Z,5.03
2018-12-31T07:35:04.116Z,5.15
2018-12-31T07:36:04.102Z,5.07
2018-12-31T07:37:04.099Z,4.99
2018-12-31T07:38:04.080Z,5.06
2018-12-31T07:39:04.087Z,5.06
2018-12-31T07:40:04.063Z,4.99
2018-12-31T07:41:04.052Z,5.00
2018-12-31T07:42:04.043Z,5.13
2018-12-31T07:43:04.031Z,5.07
2018-12-31T07:44:04.017Z,5.04
2018-12-31T07:45:04.020Z,5.03
2018-12-31T07:46:04.002Z,5.09
2018-12-31T07:47:03.998Z,5.07
2018-12-31T07:48:03.977Z,5.09
2018-12-31T07:49:03.986Z,5.06
2018-12-31T07:50:03.955Z,5.09
2018-12-31T07:51:03.952Z,5.09
2018-12-31T07:52:03.925Z,5.09
2018-12-31T07:53:03.925Z,5.15
2018-12-31T07:54:03.907Z,5.07
2018-12-31T07:55:03.893Z,5.18
2018-12-31T07:56:03.889Z,5.10
2018-12-31T07:57:03.880Z,5.13
2018-12-31T07:58:03.861Z,5.10
2018-12-31T07:59:03.849Z,5.12
2018-12-31T08:00:03.847Z,5.22
2018-12-31T08:01:03.829Z,5.15
2018-12-31T08:02:03.826Z,5.18
2018-12-31T08:03:03.819Z,5.18
2018-12-31T08:04:03.797Z,5.28
2018-12-31T08:05:03.794Z,5.28
2018-12-31T08:06:03.782Z,5.15
2018-12-31T08:07:03.767Z,5.20
2018-12-31T08:08:03.758Z,5.22
2018-12-31T08:09:03.744Z,5.18
2018-12-31T08:10:03.739Z,5.20
2018-12-31T08:11:03.729Z,5.24
2018-12-31T08:12:03.741Z,5.24
2018-12-31T08:13:03.704Z,5.27
2018-12-31T08:14:03.698Z,5.22
2018-12-31T08:15:03.687Z,5.20
2018-12-31T08:16:03.674Z,5.10
2018-12-31T08:17:03.659Z,5.25
2018-12-31T08:18:03.651Z,5.28
2018-12-31T08:19:03.639Z,5.24
2018-12-31T08:20:03.630Z,5.28
2018-12-31T08:21:03.634Z,5.22
2018-12-31T08:22:03.603Z,5.27
2018-12-31T08:23:03.597Z,5.22
2018-12-31T08:24:03.587Z,5.36
2018-12-31T08:25:03.592Z,5.46
2018-12-31T08:26:03.567Z,5.46
2018-12-31T08:27:03.547Z,5.49
2018-12-31T08:28:03.539Z,5.40
2018-12-31T08:29:03.538Z,5.42
2018-12-31T08:30:03.526Z,5.45
2018-12-31T08:31:03.510Z,5.40
2018-12-31T08:32:03.510Z,5.40
2018-12-31T08:33:03.500Z,5.36
2018-12-31T08:34:03.478Z,5.39
2018-12-31T08:35:03.462Z,5.31
2018-12-31T08:36:03.464Z,5.36
2018-12-31T08:37:03.445Z,5.31
2018-12-31T08:38:03.453Z,5.35
2018-12-31T08:39:03.423Z,5.38
2018-12-31T08:40:03.410Z,5.28
2018-12-31T08:41:03.400Z,5.36
2018-12-31T08:42:03.387Z,5.35
2018-12-31T08:43:03.383Z,5.36
2018-12-31T08:44:03.379Z,5.45
2018-12-31T08:45:03.359Z,5.36
2018-12-31T08:46:03.347Z,5.40
2018-12-31T08:47:03.333Z,5.46
2018-12-31T08:48:03.344Z,5.40
2018-12-31T08:49:03.314Z,5.40
2018-12-31T08:50:03.518Z,5.48
2018-12-31T08:51:03.450Z,5.46
2018-12-31T08:52:03.279Z,5.42
2018-12-31T08:53:03.271Z,5.46
2018-12-31T08:54:03.263Z,5.51
2018-12-31T08:55:03.260Z,5.46
2018-12-31T08:56:03.257Z,5.49
2018-12-31T08:57:03.237Z,5.51
2018-12-31T08:58:03.220Z,5.53
2018-12-31T08:59:03.208Z,5.54
2018-12-31T09:00:03.200Z,5.58
2018-12-31T09:01:03.202Z,5.54
2018-12-31T09:02:03.179Z,5.63
2018-12-31T09:03:03.170Z,5.75
2018-12-31T09:04:03.159Z,5.63
2018-12-31T09:05:03.148Z,5.65
2018-12-31T09:06:03.141Z,5.72
2018-12-31T09:07:03.129Z,5.74
2018-12-31T09:08:03.116Z,5.65
2018-12-31T09:09:03.100Z,5.63
2018-12-31T09:10:03.093Z,5.58
2018-12-31T09:11:03.081Z,5.64
2018-12-31T09:12:03.069Z,5.61
2018-12-31T09:13:03.060Z,5.68
2018-12-31T09:14:03.056Z,5.78
2018-12-31T09:15:03.054Z,5.81
2018-12-31T09:16:03.059Z,5.81
2018-12-31T09:17:03.026Z,5.79
2018-12-31T09:18:03.011Z,5.74
2018-12-31T09:19:03.003Z,5.76
2018-12-31T09:20:02.985Z,5.82
2018-12-31T09:21:02.978Z,5.79
2018-12-31T09:22:02.966Z,5.78
2018-12-31T09:23:02.955Z,5.78
2018-12-31T09:24:02.947Z,5.74
2018-12-31T09:25:02.932Z,5.83
2018-12-31T09:26:02.922Z,5.83
2018-12-31T09:27:02.914Z,5.82
2018-12-31T09:28:02.902Z,5.81
2018-12-31T09:29:02.894Z,5.91
2018-12-31T09:30:02.885Z,5.90
2018-12-31T09:31:02.884Z,5.85
2018-12-31T09:32:02.870Z,5.76
2018-12-31T09:33:02.857Z,5.91
2018-12-31T09:34:02.865Z,5.86
2018-12-31T09:35:02.832Z,5.82
2018-12-31T09:36:02.817Z,5.85
2018-12-31T09:37:02.814Z,5.89
2018-12-31T09:38:02.793Z,5.86
2018-12-31T09:39:02.786Z,5.91
2018-12-31T09:40:02.783Z,5.85
2018-12-31T09:41:02.759Z,5.86
2018-12-31T09:42:02.758Z,5.90
2018-12-31T09:43:02.741Z,5.91
2018-12-31T09:44:02.733Z,5.97
2018-12-31T09:45:02.717Z,5.90
2018-12-31T09:46:02.708Z,5.89
2018-12-31T09:47:40.224Z,5.86
2018-12-31T09:48:02.693Z,5.86
2018-12-31T09:49:14.873Z,6.01
2018-12-31T09:50:07.857Z,6.06
2018-12-31T09:51:02.659Z,6.03
2018-12-31T09:52:02.647Z,6.06
2018-12-31T09:53:02.648Z,6.08
2018-12-31T09:54:02.639Z,6.25
2018-12-31T09:55:02.620Z,6.17
2018-12-31T09:56:02.606Z,6.19
2018-12-31T09:57:02.601Z,6.31
2018-12-31T09:58:02.582Z,6.33
2018-12-31T09:59:02.576Z,6.27
2018-12-31T10:00:02.580Z,6.37
2018-12-31T10:01:02.549Z,6.36
2018-12-31T10:02:02.544Z,6.30
2018-12-31T10:03:02.533Z,6.34
2018-12-31T10:04:02.574Z,6.27
2018-12-31T10:05:02.506Z,6.37
2018-12-31T10:06:02.525Z,6.40
2018-12-31T10:07:02.519Z,6.36
2018-12-31T10:08:02.502Z,6.41
2018-12-31T10:09:02.465Z,6.34
2018-12-31T10:10:02.507Z,6.34
2018-12-31T10:11:02.454Z,6.49
2018-12-31T10:12:02.442Z,6.41
2018-12-31T10:13:02.449Z,6.48
2018-12-31T10:14:02.414Z,6.52
2018-12-31T10:15:02.431Z,6.52
2018-12-31T10:16:02.424Z,6.59
2018-12-31T10:17:02.387Z,6.66
2018-12-31T10:18:02.421Z,6.62
2018-12-31T10:19:02.358Z,6.74
2018-12-31T10:20:02.416Z,6.70
2018-12-31T10:21:02.359Z,6.74
2018-12-31T10:22:02.361Z,6.85
2018-12-31T10:23:02.331Z,6.89
2018-12-31T10:24:02.360Z,6.84
2018-12-31T10:25:02.324Z,6.89
2018-12-31T10:26:02.316Z,6.91
2018-12-31T10:27:03.505Z,6.99
2018-12-31T10:28:02.285Z,6.99
2018-12-31T10:29:02.268Z,6.98
2018-12-31T10:30:02.247Z,7.09
2018-12-31T10:31:02.237Z,7.25
2018-12-31T10:32:02.215Z,7.20
2018-12-31T10:33:02.235Z,7.16
2018-12-31T10:34:02.191Z,7.25
2018-12-31T10:35:02.197Z,7.25
2018-12-31T10:36:02.189Z,7.16
2018-12-31T10:37:02.173Z,7.23
2018-12-31T10:38:02.176Z,7.23
2018-12-31T10:39:02.149Z,7.25
2018-12-31T10:40:02.136Z,7.30
2018-12-31T10:41:02.139Z,7.31
2018-12-31T10:42:02.118Z,7.32
2018-12-31T10:43:02.096Z,7.35
2018-12-31T10:44:02.091Z,7.42
2018-12-31T10:45:02.077Z,7.37
2018-12-31T10:46:02.076Z,7.34
2018-12-31T10:47:02.057Z,7.34
2018-12-31T10:48:02.043Z,7.31
2018-12-31T10:49:02.033Z,7.25
2018-12-31T10:50:02.105Z,7.32
2018-12-31T10:51:02.023Z,7.20
2018-12-31T10:52:02.000Z,7.28
2018-12-31T10:53:02.002Z,7.23
2018-12-31T10:54:01.976Z,7.23
2018-12-31T10:55:01.967Z,7.07
2018-12-31T10:56:02.031Z,7.05
2018-12-31T10:57:01.951Z,7.03
2018-12-31T10:58:01.934Z,6.92
2018-12-31T10:59:01.942Z,6.95
2018-12-31T11:00:01.909Z,6.94
2018-12-31T11:01:01.899Z,7.03
2018-12-31T11:02:01.887Z,6.94
2018-12-31T11:03:01.885Z,7.03
2018-12-31T11:04:01.870Z,7.05
2018-12-31T11:05:01.872Z,7.07
2018-12-31T11:06:01.846Z,7.17
2018-12-31T11:07:01.844Z,7.24
2018-12-31T11:08:01.831Z,7.25
2018-12-31T11:09:01.840Z,7.30
2018-12-31T11:10:01.809Z,7.23
2018-12-31T11:11:01.806Z,7.31
2018-12-31T11:12:01.787Z,7.27
2018-12-31T11:13:01.774Z,7.25
2018-12-31T11:14:01.762Z,7.27
2018-12-31T11:15:01.753Z,7.23
2018-12-31T11:16:01.746Z,7.17
2018-12-31T11:17:01.753Z,7.16
2018-12-31T11:18:01.736Z,7.20
2018-12-31T11:19:01.704Z,7.09
2018-12-31T11:20:01.705Z,7.21
2018-12-31T11:21:01.691Z,7.13
2018-12-31T11:22:01.695Z,7.23
2018-12-31T11:23:01.665Z,7.37
2018-12-31T11:24:01.655Z,7.39
2018-12-31T11:25:01.640Z,7.45
2018-12-31T11:26:01.632Z,7.45
2018-12-31T11:27:01.623Z,7.45
2018-12-31T11:28:01.612Z,7.50
2018-12-31T11:29:01.601Z,7.39
2018-12-31T11:30:01.595Z,7.37
2018-12-31T11:31:01.580Z,7.50
2018-12-31T11:32:01.598Z,7.48
2018-12-31T11:33:01.553Z,7.55
2018-12-31T11:34:01.543Z,7.63
2018-12-31T11:35:01.539Z,7.52
2018-12-31T11:36:01.519Z,7.68
2018-12-31T11:37:01.524Z,7.64
2018-12-31T11:38:01.504Z,7.69
2018-12-31T11:39:01.496Z,7.64
2018-12-31T11:40:01.498Z,7.55
2018-12-31T11:41:01.467Z,7.55
2018-12-31T11:42:01.460Z,7.53
2018-12-31T11:43:01.443Z,7.50
2018-12-31T11:44:01.451Z,7.39
2018-12-31T11:45:01.438Z,7.31
2018-12-31T11:46:01.426Z,7.28
2018-12-31T11:47:03.207Z,7.39
2018-12-31T11:48:01.395Z,7.37
2018-12-31T11:49:01.381Z,7.23
2018-12-31T11:50:01.383Z,7.25
2018-12-31T11:51:01.374Z,7.31
2018-12-31T11:52:01.359Z,7.21
2018-12-31T11:53:01.340Z,7.23
2018-12-31T11:54:01.333Z,7.25
2018-12-31T11:55:01.355Z,7.27
2018-12-31T11:56:01.315Z,7.25
2018-12-31T11:57:01.307Z,7.32
2018-12-31T11:58:01.361Z,7.30
2018-12-31T11:59:01.271Z,7.40
2018-12-31T12:00:01.278Z,7.32
2018-12-31T12:01:01.249Z,7.43
2018-12-31T12:02:01.256Z,7.49
2018-12-31T12:03:01.229Z,7.34
2018-12-31T12:04:01.218Z,7.52
2018-12-31T12:05:01.207Z,7.43
2018-12-31T12:06:01.198Z,7.46
2018-12-31T12:07:01.185Z,7.57
2018-12-31T12:08:01.197Z,7.52
2018-12-31T12:09:01.168Z,7.64
2018-12-31T12:10:01.160Z,7.64
2018-12-31T12:11:01.160Z,7.43
2018-12-31T12:12:01.138Z,7.58
2018-12-31T12:13:01.129Z,7.55
2018-12-31T12:14:01.113Z,7.53
2018-12-31T12:15:01.204Z,7.58
2018-12-31T12:16:01.094Z,7.58
2018-12-31T12:17:01.088Z,7.58
2018-12-31T12:18:01.072Z,7.64
2018-12-31T12:19:01.077Z,7.68
2018-12-31T12:20:01.046Z,7.64
2018-12-31T12:21:01.048Z,7.68
2018-12-31T12:22:01.054Z,7.68
2018-12-31T12:23:01.012Z,7.63
2018-12-31T12:24:01.008Z,7.63
2018-12-31T12:25:01.021Z,7.64
2018-12-31T12:26:01.002Z,7.64
2018-12-31T12:27:01.024Z,7.67
2018-12-31T12:28:00.966Z,7.68
2018-12-31T12:29:00.947Z,7.74
2018-12-31T12:30:00.968Z,7.63
2018-12-31T12:31:00.926Z,7.63
2018-12-31T12:32:01.000Z,7.71
2018-12-31T12:33:00.902Z,7.75
2018-12-31T12:34:00.904Z,7.80
2018-12-31T12:35:00.884Z,7.87
2018-12-31T12:36:00.876Z,7.85
2018-12-31T12:37:00.870Z,7.85
2018-12-31T12:38:00.862Z,7.95
2018-12-31T12:39:00.853Z,7.89
2018-12-31T12:40:00.833Z,7.98
2018-12-31T12:41:00.835Z,8.00
2018-12-31T12:42:00.813Z,7.90
2018-12-31T12:43:00.800Z,7.98
2018-12-31T12:44:00.795Z,7.98
2018-12-31T12:45:00.776Z,7.97
2018-12-31T12:46:00.770Z,7.93
2018-12-31T12:47:00.760Z,8.00
2018-12-31T12:48:00.747Z,7.85
2018-12-31T12:49:00.736Z,7.87
2018-12-31T12:50:00.728Z,7.89
2018-12-31T12:51:00.716Z,7.98
2018-12-31T12:52:00.711Z,7.92
2018-12-31T12:53:00.708Z,8.00
2018-12-31T12:54:00.689Z,8.00
2018-12-31T13:01:16.728Z,7.87
2018-12-31T13:02:16.692Z,7.72
2018-12-31T13:03:16.686Z,7.79
2018-12-31T13:04:16.677Z,7.74
2018-12-31T13:05:16.665Z,7.77
2018-12-31T13:06:16.660Z,7.85
2018-12-31T13:07:16.642Z,7.85
2018-12-31T13:08:16.708Z,7.72
2018-12-31T13:09:16.616Z,7.85
2018-12-31T13:10:16.603Z,7.85
2018-12-31T13:11:16.594Z,7.90
2018-12-31T13:12:16.592Z,7.92
2018-12-31T13:13:16.578Z,7.90
2018-12-31T13:14:16.558Z,7.95
2018-12-31T13:15:16.552Z,7.98
2018-12-31T13:16:16.562Z,8.00
2018-12-31T13:17:16.551Z,7.97
2018-12-31T13:18:16.516Z,7.93
2018-12-31T13:19:16.507Z,7.92
2018-12-31T13:20:16.501Z,7.85
2018-12-31T13:21:16.485Z,7.92
2018-12-31T13:22:16.482Z,7.90
2018-12-31T13:23:16.469Z,7.97
2018-12-31T13:24:16.459Z,7.98